Time;durP1;ratioP1;P1;durP2;ratioP2;P2;SDS_P1;SDS_P2;PMS_P1;PMS_P2;Temp;Humidity;BMP_temperature;BMP_pressure;BME280_temperature;BME280_humidity;BME280_pressure;Samples;Min_cycle;Max_cycle;Signal;HPM_P1;HPM_P2
2023/08/19 00:01:15;;;;;;;;;;;;;;;29.30;37.96;94252.06;5023067;28;7242;-62
2023/08/19 00:03:59;;;;;;;;;;;;;;;29.27;37.24;94247.63;5008159;28;7234;-62
2023/08/19 00:06:34;;;;;;;;;;;;;;;29.25;37.25;94250.94;5009933;28;9022;-62
2023/08/19 00:09:38;;;;;;;;;;;;;;;29.21;37.66;94253.28;5018812;28;8831;-62
2023/08/19 00:12:05;;;;;;;;;;;;;;;29.20;37.48;94249.03;4974715;28;7139;-61
2023/08/19 00:14:51;;;;;;;;;;;;;;;29.18;37.32;94245.31;4972288;28;7013;-62
2023/08/19 00:17:30;;;;;;;;;;;;;;;29.17;37.45;94249.38;4991480;28;7426;-62
2023/08/19 00:20:11;;;;;;;;;;;;;;;29.15;37.73;94246.34;4986711;28;7010;-62
2023/08/19 00:23:11;;;;;;;;;;;;;;;29.19;37.80;94249.56;4991256;28;7104;-62
2023/08/19 00:25:40;;;;;;;;;;;;;;;29.13;37.12;94246.13;4931783;29;9089;-61
2023/08/19 00:28:06;;;;;;;;;;;;;;;29.14;37.69;94250.41;4928632;29;7124;-62
2023/08/19 00:30:35;;;;;;;;;;;;;;;29.12;38.17;94247.44;4915148;29;7139;-62
2023/08/19 00:33:06;;;;;;;;;;;;;;;29.12;37.07;94248.19;4914665;29;7261;-62
2023/08/19 00:35:34;;;;;;;;;;;;;;;29.09;37.23;94238.91;4931203;29;9058;-61
2023/08/19 00:38:09;;;;;;;;;;;;;;;29.09;37.06;94247.22;4931720;29;7093;-62
2023/08/19 00:40:54;;;;;;;;;;;;;;;29.08;37.80;94247.75;4931683;29;6986;-61
2023/08/19 00:43:21;;;;;;;;;;;;;;;29.05;37.15;94252.38;4931343;29;9118;-62
2023/08/19 00:45:55;;;;;;;;;;;;;;;29.08;37.03;94251.28;4918993;28;9033;-62
2023/08/19 00:48:41;;;;;;;;;;;;;;;29.05;37.19;94252.38;4927001;28;9342;-62
2023/08/19 00:51:46;;;;;;;;;;;;;;;29.05;37.22;94244.06;4952628;28;7013;-62
2023/08/19 00:54:14;;;;;;;;;;;;;;;29.03;38.02;94252.16;4946654;28;7213;-62
2023/08/19 00:56:55;;;;;;;;;;;;;;;29.03;36.77;94251.41;4930588;28;7340;-62
2023/08/19 00:59:27;;;;;;;;;;;;;;;29.03;37.38;94251.41;4947423;28;7005;-62
2023/08/19 01:01:57;;;;;;;;;;;;;;;28.98;37.55;94246.72;4967764;28;7456;-62
2023/08/19 01:04:38;;;;;;;;;;;;;;;28.97;36.69;94243.22;5008994;28;9197;-62
2023/08/19 01:07:47;;;;;;;;;;;;;;;28.98;36.82;94244.72;5011649;28;9205;-62
2023/08/19 01:11:01;;;;;;;;;;;;;;;28.96;37.40;94241.72;5001936;28;7264;-62
2023/08/19 01:13:48;;;;;;;;;;;;;;;28.95;37.13;94245.00;4961676;28;7851;-62
2023/08/19 01:16:24;;;;;;;;;;;;;;;28.93;37.21;94245.56;5005568;28;8458;-61
2023/08/19 01:18:53;;;;;;;;;;;;;;;28.94;37.92;94247.06;4986312;28;7073;-61
2023/08/19 01:21:25;;;;;;;;;;;;;;;28.93;37.55;94245.56;4974303;28;9069;-62
2023/08/19 01:24:06;;;;;;;;;;;;;;;28.92;36.81;94246.84;4990364;28;6996;-62
2023/08/19 01:26:36;;;;;;;;;;;;;;;28.94;37.18;94246.31;4988618;28;7211;-61
2023/08/19 01:29:02;;;;;;;;;;;;;;;28.93;37.27;94242.03;4983237;28;7277;-62
2023/08/19 01:31:52;;;;;;;;;;;;;;;28.93;36.66;94251.09;4974344;28;7319;-62
2023/08/19 01:34:19;;;;;;;;;;;;;;;28.92;37.64;94246.84;5005763;28;7098;-61
2023/08/19 01:37:10;;;;;;;;;;;;;;;28.91;37.13;94247.38;4970905;28;9173;-62
2023/08/19 01:39:56;;;;;;;;;;;;;;;28.89;37.55;94247.16;4982848;28;9072;-62
2023/08/19 01:42:49;;;;;;;;;;;;;;;28.89;37.29;94255.47;4972385;28;9102;-62
2023/08/19 01:45:29;;;;;;;;;;;;;;;28.87;37.39;94252.50;5034556;28;8791;-65
2023/08/19 01:47:56;;;;;;;;;;;;;;;28.88;37.89;94257.50;5003730;28;9017;-65
2023/08/19 01:50:29;;;;;;;;;;;;;;;28.86;37.29;94262.09;5011346;28;9656;-65
2023/08/19 01:53:08;;;;;;;;;;;;;;;28.87;37.83;94269.88;5007701;28;7269;-66
2023/08/19 01:55:42;;;;;;;;;;;;;;;28.85;37.62;94269.66;5009940;28;9169;-65
2023/08/19 01:58:24;;;;;;;;;;;;;;;28.83;36.78;94261.16;5012317;28;7214;-65
2023/08/19 02:00:52;;;;;;;;;;;;;;;28.87;37.29;94271.88;5024695;28;7016;-65
2023/08/19 02:03:26;;;;;;;;;;;;;;;28.87;37.06;94267.09;5041511;28;7238;-66
2023/08/19 02:06:18;;;;;;;;;;;;;;;28.93;37.83;94267.72;5005821;28;9070;-65
2023/08/19 02:08:57;;;;;;;;;;;;;;;28.93;36.44;94267.72;5005293;28;7299;-65
2023/08/19 02:11:25;;;;;;;;;;;;;;;28.94;37.56;94265.69;5025398;28;7200;-65
2023/08/19 02:14:10;;;;;;;;;;;;;;;28.91;37.29;94261.22;5012283;28;7310;-65
2023/08/19 02:16:35;;;;;;;;;;;;;;;28.91;37.07;94261.22;5006388;28;8800;-65
2023/08/19 02:19:04;;;;;;;;;;;;;;;28.91;37.38;94267.50;5004813;28;6982;-65
2023/08/19 02:21:43;;;;;;;;;;;;;;;28.92;37.48;94274.53;5014126;28;9008;-65
2023/08/19 02:24:23;;;;;;;;;;;;;;;28.89;37.01;94259.00;5014913;28;9197;-65
2023/08/19 02:27:06;;;;;;;;;;;;;;;28.87;37.44;94274.66;5022988;28;7260;-65
2023/08/19 02:29:41;;;;;;;;;;;;;;;28.85;36.81;94266.88;5021571;28;9056;-65
2023/08/19 02:32:24;;;;;;;;;;;;;;;28.89;36.43;94272.84;5014804;28;7188;-65
2023/08/19 02:34:59;;;;;;;;;;;;;;;28.90;36.67;94274.34;5008442;28;7182;-65
2023/08/19 02:37:31;;;;;;;;;;;;;;;28.89;36.60;94278.38;5027881;28;7485;-66
2023/08/19 02:40:00;;;;;;;;;;;;;;;28.87;37.36;94277.41;5013511;28;8859;-65
2023/08/19 02:42:27;;;;;;;;;;;;;;;28.84;36.64;94273.69;5013845;28;9102;-65
2023/08/19 02:45:24;;;;;;;;;;;;;;;28.85;36.56;94268.91;5017797;28;8500;-65
2023/08/19 02:47:50;;;;;;;;;;;;;;;28.84;36.42;94267.44;4962316;28;6986;-65
2023/08/19 02:50:31;;;;;;;;;;;;;;;28.83;37.16;94286.06;4955207;28;7189;-65
2023/08/19 02:52:58;;;;;;;;;;;;;;;28.82;36.60;94283.81;4962324;28;6997;-65
2023/08/19 02:55:24;;;;;;;;;;;;;;;28.83;36.74;94288.06;4967488;28;7073;-57
2023/08/19 02:58:13;;;;;;;;;;;;;;;28.85;36.89;94293.81;4955410;28;7253;-57
2023/08/19 03:00:39;;;;;;;;;;;;;;;28.80;36.95;94280.81;4951001;28;7646;-57
2023/08/19 03:03:08;;;;;;;;;;;;;;;28.81;36.91;94282.34;4954118;28;7160;-57
2023/08/19 03:05:44;;;;;;;;;;;;;;;28.80;37.44;94284.34;4953741;28;7076;-57
2023/08/19 03:08:12;;;;;;;;;;;;;;;28.79;37.44;94282.88;4943602;28;8262;-57
2023/08/19 03:10:48;;;;;;;;;;;;;;;28.78;37.04;94286.16;4934901;28;7061;-57
2023/08/19 03:13:29;;;;;;;;;;;;;;;28.76;36.27;94283.94;4944672;28;7236;-57
2023/08/19 03:16:11;;;;;;;;;;;;;;;28.78;36.72;94286.16;4963558;28;7244;-58
2023/08/19 03:18:37;;;;;;;;;;;;;;;28.77;37.41;94285.44;4973661;28;6998;-57
2023/08/19 03:21:21;;;;;;;;;;;;;;;28.78;37.43;94291.69;4974047;28;7210;-58
2023/08/19 03:24:02;;;;;;;;;;;;;;;28.77;37.13;94284.69;4972337;28;7361;-57
2023/08/19 03:26:37;;;;;;;;;;;;;;;28.77;37.28;94287.44;5027043;28;9060;-57
2023/08/19 03:29:37;;;;;;;;;;;;;;;28.74;36.57;94277.44;5019392;28;9036;-57
2023/08/19 03:32:04;;;;;;;;;;;;;;;28.76;37.22;94283.19;4960968;28;7508;-57
2023/08/19 03:34:56;;;;;;;;;;;;;;;28.75;36.40;94287.25;4992744;28;8811;-57
2023/08/19 03:37:22;;;;;;;;;;;;;;;28.73;37.36;94281.50;4969099;28;9558;-57
2023/08/19 03:40:19;;;;;;;;;;;;;;;28.73;37.65;94292.56;4982250;28;7277;-57
2023/08/19 03:42:58;;;;;;;;;;;;;;;28.69;37.27;94295.66;4919356;29;8760;-57
2023/08/19 03:45:59;;;;;;;;;;;;;;;28.71;36.55;94300.66;4916127;29;7175;-57
2023/08/19 03:48:49;;;;;;;;;;;;;;;28.72;36.81;94299.38;4891077;29;7674;-57
2023/08/19 03:51:36;;;;;;;;;;;;;;;28.73;36.64;94306.41;4897228;29;8793;-57
2023/08/19 03:54:09;;;;;;;;;;;;;;;28.69;37.04;94309.47;4898350;29;9178;-57
2023/08/19 03:56:56;;;;;;;;;;;;;;;28.67;37.11;94308.53;4891914;29;9055;-57
2023/08/19 03:59:34;;;;;;;;;;;;;;;28.70;36.56;94313.00;4902198;29;9463;-58
2023/08/19 04:02:20;;;;;;;;;;;;;;;28.69;36.33;94317.78;4896573;29;9085;-57
2023/08/19 04:05:11;;;;;;;;;;;;;;;28.67;36.48;94319.59;4898301;29;9148;-63
2023/08/19 04:07:40;;;;;;;;;;;;;;;28.68;36.70;94324.63;4909193;29;9078;-63
2023/08/19 04:10:17;;;;;;;;;;;;;;;28.67;36.33;94322.34;4931880;28;9087;-62
2023/08/19 04:12:59;;;;;;;;;;;;;;;28.66;36.63;94327.19;4912476;29;7233;-63
2023/08/19 04:15:31;;;;;;;;;;;;;;;28.68;37.25;94323.88;4910959;29;9088;-63
2023/08/19 04:18:24;;;;;;;;;;;;;;;28.68;37.15;94332.16;4930525;29;7245;-63
2023/08/19 04:21:14;;;;;;;;;;;;;;;28.69;36.74;94326.09;4949914;28;7945;-63
2023/08/19 04:23:48;;;;;;;;;;;;;;;28.70;36.44;94329.59;4970746;28;7847;-63
2023/08/19 04:26:38;;;;;;;;;;;;;;;28.70;36.09;94335.91;5042407;28;9160;-63
2023/08/19 04:29:11;;;;;;;;;;;;;;;28.70;37.16;94346.22;5022957;28;9087;-63
2023/08/19 04:31:37;;;;;;;;;;;;;;;28.69;36.40;94339.94;5012518;28;7271;-63
2023/08/19 04:34:05;;;;;;;;;;;;;;;28.68;36.15;94343.25;5026319;28;7337;-63
2023/08/19 04:36:34;;;;;;;;;;;;;;;28.69;36.95;94356.53;5011007;28;9381;-63
2023/08/19 04:39:01;;;;;;;;;;;;;;;28.67;36.79;94353.56;5011280;28;7000;-64
2023/08/19 04:41:27;;;;;;;;;;;;;;;28.68;36.44;94354.31;5010784;28;9173;-63
2023/08/19 04:43:57;;;;;;;;;;;;;;;28.70;37.15;94362.81;5011929;28;7029;-63
2023/08/19 04:46:34;;;;;;;;;;;;;;;28.68;36.59;94359.84;5012087;28;7741;-63
2023/08/19 04:49:10;;;;;;;;;;;;;;;28.65;36.45;94363.66;5023694;28;9098;-63
2023/08/19 04:51:38;;;;;;;;;;;;;;;28.68;36.48;94365.38;5045585;28;7013;-63
2023/08/19 04:54:04;;;;;;;;;;;;;;;28.67;36.97;94370.16;5026543;28;9065;-63
2023/08/19 04:56:40;;;;;;;;;;;;;;;28.66;36.64;94371.47;5018950;28;7040;-63
2023/08/19 04:59:58;;;;;;;;;;;;;;;28.65;37.44;94361.66;5010924;28;7323;-63
2023/08/19 05:02:26;;;;;;;;;;;;;;;28.63;36.47;94374.53;5004822;28;10018;-63
2023/08/19 05:05:04;;;;;;;;;;;;;;;28.59;36.67;94369.31;4975442;28;7007;-63
2023/08/19 05:07:31;;;;;;;;;;;;;;;28.58;37.11;94370.59;4988900;28;7136;-63
2023/08/19 05:10:08;;;;;;;;;;;;;;;28.61;36.98;94372.28;4973062;28;7171;-63
2023/08/19 05:12:50;;;;;;;;;;;;;;;28.59;36.95;94372.09;4986420;28;9152;-63
2023/08/19 05:15:16;;;;;;;;;;;;;;;28.59;36.83;94374.09;4989009;28;6999;-65
2023/08/19 05:17:50;;;;;;;;;;;;;;;28.62;36.71;94367.50;4974832;28;7709;-65
2023/08/19 05:20:35;;;;;;;;;;;;;;;28.56;37.26;94364.09;4972774;28;9142;-65
2023/08/19 05:23:01;;;;;;;;;;;;;;;28.55;36.92;94368.88;4972064;28;8838;-65
2023/08/19 05:25:36;;;;;;;;;;;;;;;28.56;37.54;94375.88;4984022;28;7103;-65
2023/08/19 05:28:32;;;;;;;;;;;;;;;28.59;37.42;94374.84;4973118;28;7231;-65
2023/08/19 05:31:18;;;;;;;;;;;;;;;28.59;37.40;94376.88;4889452;29;7205;-65
2023/08/19 05:34:13;;;;;;;;;;;;;;;28.57;36.79;94376.63;4908189;29;7262;-64
2023/08/19 05:36:52;;;;;;;;;;;;;;;28.49;37.49;94371.00;4911278;29;7144;-65
2023/08/19 05:39:35;;;;;;;;;;;;;;;28.51;37.50;94378.75;4931180;28;7223;-65
2023/08/19 05:42:12;;;;;;;;;;;;;;;28.50;37.66;94386.31;4952806;28;9129;-65
2023/08/19 05:45:00;;;;;;;;;;;;;;;28.48;37.53;94382.56;4944653;28;8801;-65
2023/08/19 05:47:48;;;;;;;;;;;;;;;28.52;37.32;94397.59;4923471;28;7210;-66
2023/08/19 05:50:27;;;;;;;;;;;;;;;28.53;37.50;94399.09;4932089;28;9402;-65
2023/08/19 05:52:53;;;;;;;;;;;;;;;28.53;37.94;94407.38;4933411;28;7234;-64
2023/08/19 05:55:20;;;;;;;;;;;;;;;28.54;36.96;94410.88;4927904;28;9300;-64
2023/08/19 05:58:06;;;;;;;;;;;;;;;28.52;37.66;94403.13;4936055;28;7316;-65
2023/08/19 06:00:41;;;;;;;;;;;;;;;28.50;37.87;94413.97;4955347;28;7251;-65
2023/08/19 06:03:07;;;;;;;;;;;;;;;28.48;37.82;94399.91;4934288;29;9461;-65
2023/08/19 06:05:46;;;;;;;;;;;;;;;28.50;37.74;94400.13;4935897;29;9050;-65
2023/08/19 06:08:39;;;;;;;;;;;;;;;28.48;37.91;94404.69;4996902;28;7262;-65
2023/08/19 06:11:11;;;;;;;;;;;;;;;28.46;37.71;94405.25;4969642;28;9161;-65
2023/08/19 06:13:48;;;;;;;;;;;;;;;28.46;37.37;94405.25;4954338;28;7253;-65
2023/08/19 06:16:32;;;;;;;;;;;;;;;28.47;38.07;94412.25;4953495;28;9189;-65
2023/08/19 06:19:08;;;;;;;;;;;;;;;28.48;38.11;94413.00;4948096;29;7320;-65
2023/08/19 06:21:45;;;;;;;;;;;;;;;28.51;38.22;94417.50;4951672;28;7136;-65
2023/08/19 06:24:13;;;;;;;;;;;;;;;28.49;37.95;94418.03;4971913;28;7225;-63
2023/08/19 06:26:50;;;;;;;;;;;;;;;28.48;37.96;94419.28;4966434;28;7375;-62
2023/08/19 06:29:21;;;;;;;;;;;;;;;28.49;37.76;94420.81;4946842;28;7266;-62
2023/08/19 06:31:56;;;;;;;;;;;;;;;28.47;37.89;94414.28;4966021;28;7096;-63
2023/08/19 06:34:22;;;;;;;;;;;;;;;28.48;38.68;94419.28;4966705;28;7171;-62
2023/08/19 06:37:01;;;;;;;;;;;;;;;28.49;38.38;94420.81;4963390;28;6878;-62
2023/08/19 06:39:33;;;;;;;;;;;;;;;28.53;38.48;94418.47;4952515;28;7213;-63
2023/08/19 06:42:03;;;;;;;;;;;;;;;28.53;38.89;94426.00;4968027;28;7214;-62
2023/08/19 06:44:30;;;;;;;;;;;;;;;28.51;38.87;94426.53;4961609;28;7162;-63
2023/08/19 06:46:57;;;;;;;;;;;;;;;28.50;38.35;94430.56;4969369;28;7026;-62
2023/08/19 06:49:36;;;;;;;;;;;;;;;28.52;38.39;94430.78;5012429;28;7266;-62
2023/08/19 06:52:05;;;;;;;;;;;;;;;28.52;38.85;94430.03;5009723;28;7263;-62
2023/08/19 06:54:41;;;;;;;;;;;;;;;28.48;38.97;94433.13;5025083;28;7346;-62
2023/08/19 06:57:23;;;;;;;;;;;;;;;28.47;38.19;94439.91;5008282;28;7206;-62
2023/08/19 06:59:59;;;;;;;;;;;;;;;28.45;38.74;94436.22;5021945;28;9039;-62
2023/08/19 07:02:28;;;;;;;;;;;;;;;28.43;38.44;94436.00;5040050;28;9073;-61
2023/08/19 07:05:32;;;;;;;;;;;;;;;28.47;38.53;94442.69;5027300;28;7376;-61
2023/08/19 07:08:03;;;;;;;;;;;;;;;28.46;38.59;94443.22;5019894;28;7069;-61
2023/08/19 07:10:33;;;;;;;;;;;;;;;28.47;38.83;94451.00;5017421;28;8442;-62
2023/08/19 07:13:03;;;;;;;;;;;;;;;28.48;38.91;94452.50;5011729;28;7065;-61
2023/08/19 07:16:15;;;;;;;;;;;;;;;28.49;38.92;94444.94;5013348;28;9155;-62
2023/08/19 07:18:53;;;;;;;;;;;;;;;28.49;39.69;94448.47;5024250;28;8991;-61
2023/08/19 07:21:24;;;;;;;;;;;;;;;28.52;39.93;94450.16;5027533;28;9229;-62
2023/08/19 07:23:57;;;;;;;;;;;;;;;28.55;39.00;94454.66;5007691;28;7650;-62
2023/08/19 07:26:39;;;;;;;;;;;;;;;28.57;39.63;94459.66;5027801;28;7469;-62
2023/08/19 07:29:14;;;;;;;;;;;;;;;28.57;39.20;94463.19;5045053;28;8763;-62
2023/08/19 07:31:47;;;;;;;;;;;;;;;28.54;39.29;94453.13;5009724;28;6970;-62
2023/08/19 07:34:19;;;;;;;;;;;;;;;28.57;39.66;94460.44;5012105;28;7229;-57
2023/08/19 07:36:52;;;;;;;;;;;;;;;28.54;39.50;94458.69;5011849;28;7329;-57
2023/08/19 07:39:20;;;;;;;;;;;;;;;28.56;39.68;94464.44;5003554;28;7229;-57
2023/08/19 07:41:48;;;;;;;;;;;;;;;28.56;39.97;94474.78;5011584;28;7167;-57
2023/08/19 07:44:23;;;;;;;;;;;;;;;28.55;39.26;94471.25;5006074;28;7240;-57
2023/08/19 07:46:58;;;;;;;;;;;;;;;28.55;39.26;94467.72;5014675;28;7313;-57
2023/08/19 07:49:39;;;;;;;;;;;;;;;28.53;39.80;94468.28;5029158;28;9214;-57
2023/08/19 07:52:21;;;;;;;;;;;;;;;28.56;40.19;94469.97;5048302;28;9368;-57
2023/08/19 07:55:18;;;;;;;;;;;;;;;28.58;39.67;94475.03;5015529;28;7196;-57
2023/08/19 07:58:25;;;;;;;;;;;;;;;28.56;39.32;94463.69;4996774;28;7087;-57
2023/08/19 08:00:54;;;;;;;;;;;;;;;28.57;40.19;94462.41;5010982;28;7655;-57
2023/08/19 08:03:20;;;;;;;;;;;;;;;28.59;39.23;94470.97;5003497;28;7429;-58
2023/08/19 08:05:58;;;;;;;;;;;;;;;28.60;39.36;94464.16;4995409;28;9052;-57
2023/08/19 08:08:25;;;;;;;;;;;;;;;28.63;39.81;94468.63;5025973;28;8744;-58
2023/08/19 08:11:23;;;;;;;;;;;;;;;28.64;39.50;94465.34;5036616;28;8886;-57
2023/08/19 08:13:53;;;;;;;;;;;;;;;28.64;39.40;94465.34;5007051;28;7807;-57
2023/08/19 08:16:21;;;;;;;;;;;;;;;28.67;39.14;94469.06;4997320;28;7930;-57
2023/08/19 08:19:03;;;;;;;;;;;;;;;28.67;39.21;94469.81;5015692;28;7092;-57
2023/08/19 08:21:32;;;;;;;;;;;;;;;28.66;39.07;94471.09;5015358;28;9056;-57
2023/08/19 08:27:53;;;;;;;;;;;;;;;28.69;39.84;94467.25;5027282;28;7328;-58
2023/08/19 08:30:27;;;;;;;;;;;;;;;28.68;39.50;94463.00;5010310;28;6995;-57
2023/08/19 08:32:58;;;;;;;;;;;;;;;28.69;38.93;94466.50;5006566;28;7261;-57
2023/08/19 08:36:00;;;;;;;;;;;;;;;28.70;39.27;94468.75;5031491;28;7261;-57
2023/08/19 08:38:40;;;;;;;;;;;;;;;28.70;39.82;94468.75;5009493;28;9203;-57
2023/08/19 08:41:18;;;;;;;;;;;;;;;28.70;39.17;94471.53;5028667;28;9149;-57
2023/08/19 08:44:19;;;;;;;;;;;;;;;28.72;39.61;94477.28;5027849;28;9068;-63
2023/08/19 08:46:49;;;;;;;;;;;;;;;28.69;39.12;94478.31;5028639;28;8872;-64
2023/08/19 08:49:39;;;;;;;;;;;;;;;28.68;39.16;94478.84;5028579;28;9097;-63
2023/08/19 08:52:25;;;;;;;;;;;;;;;28.73;39.58;94489.81;5011494;28;7147;-63
2023/08/19 08:54:55;;;;;;;;;;;;;;;28.73;39.96;94486.34;5028467;28;7195;-64
2023/08/19 08:57:22;;;;;;;;;;;;;;;28.74;39.90;94490.56;5009856;28;6985;-64
2023/08/19 08:59:59;;;;;;;;;;;;;;;28.73;39.22;94484.28;5009121;28;8684;-64
2023/08/19 09:02:29;;;;;;;;;;;;;;;28.73;39.65;94484.28;5013042;28;7019;-64
2023/08/19 09:05:24;;;;;;;;;;;;;;;28.76;40.03;94488.03;5014801;28;6966;-63
2023/08/19 09:07:53;;;;;;;;;;;;;;;28.76;39.08;94486.00;5006343;28;6980;-63
2023/08/19 09:10:27;;;;;;;;;;;;;;;28.76;40.15;94480.47;5012380;28;8753;-64
2023/08/19 09:13:15;;;;;;;;;;;;;;;28.78;40.15;94491.00;5008211;28;9400;-63
2023/08/19 09:15:47;;;;;;;;;;;;;;;28.77;39.18;94487.50;5019984;28;7324;-63
2023/08/19 09:18:17;;;;;;;;;;;;;;;28.78;39.56;94497.28;5013297;28;7069;-63
2023/08/19 09:20:55;;;;;;;;;;;;;;;28.78;39.99;94489.00;5025685;28;6989;-64
2023/08/19 09:23:28;;;;;;;;;;;;;;;28.79;39.85;94487.72;5012012;28;7249;-63
2023/08/19 09:26:17;;;;;;;;;;;;;;;28.79;39.64;94487.72;5003138;28;9561;-64
2023/08/19 09:28:57;;;;;;;;;;;;;;;28.80;39.33;94489.22;5013367;28;6998;-64
2023/08/19 09:31:25;;;;;;;;;;;;;;;28.81;39.35;94496.25;5009719;28;8985;-63
2023/08/19 09:33:59;;;;;;;;;;;;;;;28.81;39.61;94487.19;5025653;28;7012;-64
2023/08/19 09:36:28;;;;;;;;;;;;;;;28.81;39.90;94490.72;5010026;28;9141;-63
2023/08/19 09:39:03;;;;;;;;;;;;;;;28.81;39.36;94485.19;5012040;28;7340;-63
2023/08/19 09:41:56;;;;;;;;;;;;;;;28.83;39.31;94481.88;5027535;28;9396;-64
2023/08/19 09:44:41;;;;;;;;;;;;;;;28.80;39.41;94500.28;4970375;28;6999;-63
2023/08/19 09:47:07;;;;;;;;;;;;;;;28.81;39.33;94496.25;4966342;28;9089;-64
2023/08/19 09:49:57;;;;;;;;;;;;;;;28.83;40.18;94493.69;4946703;28;9120;-63
2023/08/19 09:52:32;;;;;;;;;;;;;;;28.82;39.69;94494.94;4970823;28;9548;-64
2023/08/19 09:55:32;;;;;;;;;;;;;;;28.84;39.81;94494.44;4965911;28;6975;-62
2023/08/19 09:58:10;;;;;;;;;;;;;;;28.83;40.43;94496.47;4893597;29;7260;-62
2023/08/19 10:00:38;;;;;;;;;;;;;;;28.83;40.14;94502.00;4896054;29;8949;-62
2023/08/19 10:03:07;;;;;;;;;;;;;;;28.83;40.14;94496.47;4895681;29;7449;-62
2023/08/19 10:05:44;;;;;;;;;;;;;;;28.86;39.80;94498.16;4895742;29;7230;-62
2023/08/19 10:08:19;;;;;;;;;;;;;;;28.88;39.82;94501.13;4879887;29;6997;-62
2023/08/19 10:10:48;;;;;;;;;;;;;;;28.89;39.71;94504.66;4895846;29;8922;-62
2023/08/19 10:13:16;;;;;;;;;;;;;;;28.87;39.63;94496.88;4892851;29;7448;-62
2023/08/19 10:15:44;;;;;;;;;;;;;;;28.89;39.42;94502.66;4891194;29;6968;-62
2023/08/19 10:18:31;;;;;;;;;;;;;;;28.92;39.14;94504.34;4891740;29;8776;-62
2023/08/19 10:21:10;;;;;;;;;;;;;;;28.91;39.68;94497.31;4914349;29;7058;-61
2023/08/19 10:23:42;;;;;;;;;;;;;;;28.91;39.48;94508.41;4952947;29;7014;-62
2023/08/19 10:26:29;;;;;;;;;;;;;;;28.94;39.37;94514.91;4936272;29;7236;-62
2023/08/19 10:29:10;;;;;;;;;;;;;;;28.92;39.99;94507.13;4944694;29;9116;-62
2023/08/19 10:31:40;;;;;;;;;;;;;;;28.94;39.50;94507.34;4947096;28;7114;-62
2023/08/19 10:34:22;;;;;;;;;;;;;;;28.96;39.57;94507.56;4975396;28;8332;-62
2023/08/19 10:37:28;;;;;;;;;;;;;;;28.97;39.75;94514.56;5028574;28;9093;-61
2023/08/19 10:40:17;;;;;;;;;;;;;;;28.95;39.68;94506.06;5014919;28;9433;-62
2023/08/19 10:43:07;;;;;;;;;;;;;;;28.98;39.05;94498.72;5011084;28;9236;-62
2023/08/19 10:45:35;;;;;;;;;;;;;;;28.97;40.13;94497.22;5020011;28;9466;-62
2023/08/19 10:48:10;;;;;;;;;;;;;;;28.98;39.07;94505.00;5016665;28;7354;-62
2023/08/19 10:50:40;;;;;;;;;;;;;;;28.98;39.90;94495.94;5016007;28;9099;-62
2023/08/19 10:53:07;;;;;;;;;;;;;;;29.00;39.78;94498.94;5030664;28;7271;-62
2023/08/19 10:55:55;;;;;;;;;;;;;;;29.00;39.24;94494.13;5043007;28;7209;-62
2023/08/19 10:58:29;;;;;;;;;;;;;;;29.00;39.48;94501.69;5025015;28;7175;-62
2023/08/19 11:00:56;;;;;;;;;;;;;;;28.98;39.75;94499.47;5015293;28;7425;-62
2023/08/19 11:03:25;;;;;;;;;;;;;;;29.00;39.65;94496.91;5047888;28;9197;-62
2023/08/19 11:06:24;;;;;;;;;;;;;;;29.02;39.75;94499.13;5034653;28;8274;-62
2023/08/19 11:09:08;;;;;;;;;;;;;;;29.02;39.23;94505.44;4972175;28;9229;-62
2023/08/19 11:11:36;;;;;;;;;;;;;;;29.04;39.57;94502.13;4978232;28;7245;-62
2023/08/19 11:14:06;;;;;;;;;;;;;;;29.03;40.42;94495.09;4978204;28;7258;-62
2023/08/19 11:16:53;;;;;;;;;;;;;;;29.04;40.52;94493.81;4971475;28;7061;-61
2023/08/19 11:19:44;;;;;;;;;;;;;;;29.04;39.49;94497.34;4976691;28;7350;-62
2023/08/19 11:22:45;;;;;;;;;;;;;;;29.06;39.47;94488.47;4970127;28;6932;-62
2023/08/19 11:25:21;;;;;;;;;;;;;;;29.05;39.53;94490.53;4936175;29;7343;-62
2023/08/19 11:28:15;;;;;;;;;;;;;;;29.06;39.74;94483.69;4933315;29;7074;-62
2023/08/19 11:31:15;;;;;;;;;;;;;;;29.07;40.50;94496.28;4930921;29;7413;-62
2023/08/19 11:33:59;;;;;;;;;;;;;;;29.09;40.00;94495.75;4920238;29;9089;-62
2023/08/19 11:36:42;;;;;;;;;;;;;;;29.09;39.81;94492.97;4936378;29;9526;-62
2023/08/19 11:39:33;;;;;;;;;;;;;;;29.09;39.59;94493.72;4920035;29;7196;-62
2023/08/19 11:42:08;;;;;;;;;;;;;;;29.08;40.11;94486.69;4919828;29;7252;-61
2023/08/19 11:44:46;;;;;;;;;;;;;;;29.11;39.42;94487.66;4935379;29;8479;-62
2023/08/19 11:47:21;;;;;;;;;;;;;;;29.13;40.25;94487.09;4945401;28;7531;-61
2023/08/19 11:49:50;;;;;;;;;;;;;;;29.14;39.68;94485.84;4927745;29;6924;-62
2023/08/19 11:52:34;;;;;;;;;;;;;;;29.12;40.20;94482.84;4934421;29;7082;-62
2023/08/19 11:55:18;;;;;;;;;;;;;;;29.12;40.52;94485.63;4951750;28;9100;-62
2023/08/19 11:57:53;;;;;;;;;;;;;;;29.13;40.29;94490.63;4936231;29;7278;-62
2023/08/19 12:00:36;;;;;;;;;;;;;;;29.14;39.73;94485.84;4963085;28;6852;-62
2023/08/19 12:03:02;;;;;;;;;;;;;;;29.14;39.85;94483.06;5012191;28;8753;-62
2023/08/19 12:05:57;;;;;;;;;;;;;;;29.17;39.64;94482.03;5019132;28;7229;-61
2023/08/19 12:08:42;;;;;;;;;;;;;;;29.18;40.61;94478.72;5030370;28;7207;-62
2023/08/19 12:11:10;;;;;;;;;;;;;;;29.22;40.19;94483.94;5014205;28;6994;-61
2023/08/19 12:13:41;;;;;;;;;;;;;;;29.23;40.22;94491.00;5015043;28;7210;-62
2023/08/19 12:16:15;;;;;;;;;;;;;;;29.20;39.77;94487.25;5013031;28;7303;-66
2023/08/19 12:19:18;;;;;;;;;;;;;;;29.24;40.11;94484.16;5029786;28;7470;-65
2023/08/19 12:21:48;;;;;;;;;;;;;;;29.25;41.02;94491.19;4959908;28;8787;-65
2023/08/19 12:24:17;;;;;;;;;;;;;;;29.24;40.56;94492.47;4972145;28;9126;-65
2023/08/19 12:27:20;;;;;;;;;;;;;;;29.24;40.71;94490.44;4989399;28;7251;-65
2023/08/19 12:29:56;;;;;;;;;;;;;;;29.24;40.21;94487.69;4901145;29;7473;-65
2023/08/19 12:32:31;;;;;;;;;;;;;;;29.25;40.58;94488.44;4897316;29;7253;-64
2023/08/19 12:35:21;;;;;;;;;;;;;;;29.25;40.29;94491.19;4891613;29;7449;-64
2023/08/19 12:37:47;;;;;;;;;;;;;;;29.28;41.05;94496.41;4882880;29;9071;-64
2023/08/19 12:40:25;;;;;;;;;;;;;;;29.30;39.86;94485.53;4896799;29;7726;-64
2023/08/19 12:43:26;;;;;;;;;;;;;;;29.32;40.16;94494.06;4893523;29;8081;-64
2023/08/19 12:45:54;;;;;;;;;;;;;;;29.32;39.92;94487.78;4883684;29;7174;-65
2023/08/19 12:48:20;;;;;;;;;;;;;;;29.32;40.10;94487.78;4884593;29;9027;-65
2023/08/19 12:50:49;;;;;;;;;;;;;;;29.33;39.97;94489.28;4894877;29;9125;-65
2023/08/19 12:53:15;;;;;;;;;;;;;;;29.32;40.96;94488.53;4896998;29;7178;-66
2023/08/19 12:55:42;;;;;;;;;;;;;;;29.31;40.85;94486.28;4878042;29;7281;-65
2023/08/19 12:58:08;;;;;;;;;;;;;;;29.35;40.92;94487.47;4922823;29;9142;-65
2023/08/19 13:01:11;;;;;;;;;;;;;;;29.39;40.06;94495.44;4920146;28;7243;-65
2023/08/19 13:03:48;;;;;;;;;;;;;;;29.39;41.07;94498.22;4959157;28;7265;-65
2023/08/19 13:06:14;;;;;;;;;;;;;;;29.42;40.69;94502.69;4975182;28;9209;-64
2023/08/19 13:09:13;;;;;;;;;;;;;;;29.42;39.90;94502.69;4975421;28;7282;-65
2023/08/19 13:11:39;;;;;;;;;;;;;;;29.43;40.61;94504.19;4938471;28;6990;-65
2023/08/19 13:14:13;;;;;;;;;;;;;;;29.43;40.01;94498.63;4945089;28;8962;-65
2023/08/19 13:16:54;;;;;;;;;;;;;;;29.47;39.83;94507.41;4934321;28;7236;-65
2023/08/19 13:19:20;;;;;;;;;;;;;;;29.49;40.95;94502.06;4937358;28;7339;-65
2023/08/19 13:22:21;;;;;;;;;;;;;;;29.48;39.87;94506.84;4953217;28;7204;-65
2023/08/19 13:25:01;;;;;;;;;;;;;;;29.51;40.81;94514.13;4876522;29;6864;-62
2023/08/19 13:27:39;;;;;;;;;;;;;;;29.50;40.14;94512.59;4861797;29;9138;-62
2023/08/19 13:30:25;;;;;;;;;;;;;;;29.54;40.29;94510.25;4867333;29;9328;-62
2023/08/19 13:32:53;;;;;;;;;;;;;;;29.55;41.14;94513.78;4855690;29;7337;-62
2023/08/19 13:35:38;;;;;;;;;;;;;;;29.56;41.01;94510.47;4854517;29;8919;-61
2023/08/19 13:38:16;;;;;;;;;;;;;;;29.55;40.70;94508.25;4862020;29;7234;-61
2023/08/19 13:40:44;;;;;;;;;;;;;;;29.59;39.78;94506.63;4840487;29;7500;-61
2023/08/19 13:43:19;;;;;;;;;;;;;;;29.59;40.30;94508.66;4847635;29;7448;-62
2023/08/19 13:46:05;;;;;;;;;;;;;;;29.62;40.97;94513.13;4847203;29;7248;-62
2023/08/19 13:48:31;;;;;;;;;;;;;;;29.60;40.22;94507.38;4899554;29;9545;-62
2023/08/19 13:51:07;;;;;;;;;;;;;;;29.63;40.67;94514.63;4911991;29;7026;-62
2023/08/19 13:53:35;;;;;;;;;;;;;;;29.65;40.70;94514.81;4914545;29;9116;-62
2023/08/19 13:56:17;;;;;;;;;;;;;;;29.66;40.24;94508.78;4903862;29;9396;-61
2023/08/19 13:58:43;;;;;;;;;;;;;;;29.67;40.07;94515.78;4886779;29;9071;-62